sensor_id;sensor_type;location;lat;lon;timestamp;P1;durP1;ratioP1;P2;durP2;ratioP2
55316;SDS011;41178;48.956;8.130;2024-02-26T13:34:47;2.63;;;2.00;;
55316;SDS011;41178;48.956;8.130;2024-02-26T13:39:49;2.10;;;2.00;;
55316;SDS011;41178;48.956;8.130;2024-02-26T13:44:51;1.70;;;1.60;;
55316;SDS011;41178;48.956;8.130;2024-02-26T13:49:52;1.70;;;1.60;;
55316;SDS011;41178;48.956;8.130;2024-02-26T13:54:54;2.10;;;1.90;;
55316;SDS011;41178;48.956;8.130;2024-02-26T13:59:56;1.90;;;1.80;;
55316;SDS011;41178;48.956;8.130;2024-02-26T14:04:58;2.30;;;2.10;;
55316;SDS011;41178;48.956;8.130;2024-02-26T14:10:00;2.00;;;1.90;;
55316;SDS011;41178;48.956;8.130;2024-02-26T14:15:02;1.93;;;1.83;;
55316;SDS011;41178;48.956;8.130;2024-02-26T14:20:06;2.03;;;1.43;;
55316;SDS011;41178;48.956;8.130;2024-02-26T14:25:10;1.70;;;1.60;;
55316;SDS011;41178;48.956;8.130;2024-02-26T14:30:12;1.80;;;1.70;;
55316;SDS011;41178;48.956;8.130;2024-02-26T14:35:14;2.37;;;1.60;;
55316;SDS011;41178;48.956;8.130;2024-02-26T14:40:18;1.80;;;1.70;;
55316;SDS011;41178;48.956;8.130;2024-02-26T14:45:20;1.90;;;1.80;;
55316;SDS011;41178;48.956;8.130;2024-02-26T14:50:22;1.53;;;1.43;;
55316;SDS011;41178;48.956;8.130;2024-02-26T14:55:23;2.07;;;1.90;;
55316;SDS011;41178;48.956;8.130;2024-02-26T15:05:20;1.97;;;1.83;;
55316;SDS011;41178;48.956;8.130;2024-02-26T15:10:22;1.70;;;1.60;;
55316;SDS011;41178;48.956;8.130;2024-02-26T15:15:24;2.03;;;1.93;;
55316;SDS011;41178;48.956;8.130;2024-02-26T15:20:26;2.20;;;2.10;;
55316;SDS011;41178;48.956;8.130;2024-02-26T15:25:27;4.20;;;2.17;;
55316;SDS011;41178;48.956;8.130;2024-02-26T15:30:29;2.53;;;1.87;;
55316;SDS011;41178;48.956;8.130;2024-02-26T15:35:31;2.20;;;2.10;;
55316;SDS011;41178;48.956;8.130;2024-02-26T15:40:32;2.07;;;1.97;;
55316;SDS011;41178;48.956;8.130;2024-02-26T15:45:34;2.63;;;1.80;;
55316;SDS011;41178;48.956;8.130;2024-02-26T15:50:35;2.03;;;1.90;;
55316;SDS011;41178;48.956;8.130;2024-02-26T15:55:39;2.10;;;2.00;;
55316;SDS011;41178;48.956;8.130;2024-02-26T16:00:41;1.70;;;1.60;;
55316;SDS011;41178;48.956;8.130;2024-02-26T16:05:43;1.67;;;1.57;;
55316;SDS011;41178;48.956;8.130;2024-02-26T16:10:46;1.70;;;1.60;;
55316;SDS011;41178;48.956;8.130;2024-02-26T16:15:52;2.20;;;2.00;;
55316;SDS011;41178;48.956;8.130;2024-02-26T16:21:00;2.83;;;1.50;;
55316;SDS011;41178;48.956;8.130;2024-02-26T16:26:01;1.60;;;1.50;;
55316;SDS011;41178;48.956;8.130;2024-02-26T16:31:03;1.60;;;1.50;;
55316;SDS011;41178;48.956;8.130;2024-02-26T16:36:05;1.53;;;1.40;;
55316;SDS011;41178;48.956;8.130;2024-02-26T16:41:07;1.47;;;1.40;;
55316;SDS011;41178;48.956;8.130;2024-02-26T16:46:08;2.07;;;1.70;;
55316;SDS011;41178;48.956;8.130;2024-02-26T16:51:10;2.33;;;2.20;;
55316;SDS011;41178;48.956;8.130;2024-02-26T16:56:12;2.00;;;1.90;;
55316;SDS011;41178;48.956;8.130;2024-02-26T17:01:14;2.07;;;1.97;;
55316;SDS011;41178;48.956;8.130;2024-02-26T17:06:16;2.10;;;2.00;;
55316;SDS011;41178;48.956;8.130;2024-02-26T17:11:18;2.00;;;1.90;;
55316;SDS011;41178;48.956;8.130;2024-02-26T17:16:20;2.10;;;1.80;;
55316;SDS011;41178;48.956;8.130;2024-02-26T17:21:22;1.73;;;1.63;;
55316;SDS011;41178;48.956;8.130;2024-02-26T17:26:25;1.73;;;1.63;;
55316;SDS011;41178;48.956;8.130;2024-02-26T17:31:27;3.03;;;2.33;;
55316;SDS011;41178;48.956;8.130;2024-02-26T17:36:30;2.90;;;2.20;;
55316;SDS011;41178;48.956;8.130;2024-02-26T17:41:32;2.30;;;2.10;;
55316;SDS011;41178;48.956;8.130;2024-02-26T17:46:34;1.70;;;1.60;;
55316;SDS011;41178;48.956;8.130;2024-02-26T17:51:36;2.40;;;2.20;;
55316;SDS011;41178;48.956;8.130;2024-02-26T17:56:38;2.53;;;2.30;;
55316;SDS011;41178;48.956;8.130;2024-02-26T18:01:39;3.50;;;3.07;;
55316;SDS011;41178;48.956;8.130;2024-02-26T18:06:41;4.73;;;3.60;;
55316;SDS011;41178;48.956;8.130;2024-02-26T18:11:45;4.50;;;3.67;;
55316;SDS011;41178;48.956;8.130;2024-02-26T18:16:47;4.27;;;3.80;;
55316;SDS011;41178;48.956;8.130;2024-02-26T18:21:49;4.93;;;3.57;;
55316;SDS011;41178;48.956;8.130;2024-02-26T18:26:50;4.87;;;3.87;;
55316;SDS011;41178;48.956;8.130;2024-02-26T18:31:53;6.80;;;4.07;;
55316;SDS011;41178;48.956;8.130;2024-02-26T18:36:55;5.57;;;4.13;;
55316;SDS011;41178;48.956;8.130;2024-02-26T18:41:57;4.20;;;3.80;;
55316;SDS011;41178;48.956;8.130;2024-02-26T18:46:59;4.90;;;4.40;;
55316;SDS011;41178;48.956;8.130;2024-02-26T18:52:02;5.07;;;4.07;;
55316;SDS011;41178;48.956;8.130;2024-02-26T18:57:05;5.67;;;4.73;;
55316;SDS011;41178;48.956;8.130;2024-02-26T19:02:07;5.80;;;4.60;;
55316;SDS011;41178;48.956;8.130;2024-02-26T19:07:09;5.40;;;4.90;;
55316;SDS011;41178;48.956;8.130;2024-02-26T19:12:10;7.10;;;5.37;;
55316;SDS011;41178;48.956;8.130;2024-02-26T19:17:12;6.87;;;5.03;;
55316;SDS011;41178;48.956;8.130;2024-02-26T19:22:14;5.10;;;4.30;;
55316;SDS011;41178;48.956;8.130;2024-02-26T19:27:18;4.90;;;4.40;;
55316;SDS011;41178;48.956;8.130;2024-02-26T19:32:20;7.20;;;5.20;;
55316;SDS011;41178;48.956;8.130;2024-02-26T19:37:21;4.67;;;4.23;;
55316;SDS011;41178;48.956;8.130;2024-02-26T19:42:24;5.77;;;5.03;;
55316;SDS011;41178;48.956;8.130;2024-02-26T19:47:26;6.20;;;4.20;;
55316;SDS011;41178;48.956;8.130;2024-02-26T19:52:29;5.83;;;4.80;;
55316;SDS011;41178;48.956;8.130;2024-02-26T19:57:30;6.27;;;5.00;;
55316;SDS011;41178;48.956;8.130;2024-02-26T20:02:33;5.50;;;4.20;;
55316;SDS011;41178;48.956;8.130;2024-02-26T20:07:36;6.17;;;5.33;;
55316;SDS011;41178;48.956;8.130;2024-02-26T20:12:37;6.37;;;5.10;;
55316;SDS011;41178;48.956;8.130;2024-02-26T20:17:39;6.20;;;4.73;;
55316;SDS011;41178;48.956;8.130;2024-02-26T20:22:41;6.17;;;5.13;;
55316;SDS011;41178;48.956;8.130;2024-02-26T20:27:43;5.27;;;4.20;;
55316;SDS011;41178;48.956;8.130;2024-02-26T20:32:44;5.67;;;4.47;;
55316;SDS011;41178;48.956;8.130;2024-02-26T20:37:46;5.80;;;5.20;;
55316;SDS011;41178;48.956;8.130;2024-02-26T20:42:48;6.10;;;5.10;;
55316;SDS011;41178;48.956;8.130;2024-02-26T20:47:50;5.67;;;4.60;;
55316;SDS011;41178;48.956;8.130;2024-02-26T20:52:53;6.70;;;4.93;;
55316;SDS011;41178;48.956;8.130;2024-02-26T20:57:54;7.93;;;5.13;;
55316;SDS011;41178;48.956;8.130;2024-02-26T21:02:57;5.47;;;4.67;;
55316;SDS011;41178;48.956;8.130;2024-02-26T21:07:59;7.55;;;5.60;;
55316;SDS011;41178;48.956;8.130;2024-02-26T21:13:01;6.20;;;4.80;;
55316;SDS011;41178;48.956;8.130;2024-02-26T21:18:04;6.27;;;4.97;;
55316;SDS011;41178;48.956;8.130;2024-02-26T21:23:06;6.17;;;4.63;;
55316;SDS011;41178;48.956;8.130;2024-02-26T21:28:10;6.07;;;4.80;;
55316;SDS011;41178;48.956;8.130;2024-02-26T21:33:12;7.30;;;4.87;;
55316;SDS011;41178;48.956;8.130;2024-02-26T21:38:14;8.37;;;4.70;;
55316;SDS011;41178;48.956;8.130;2024-02-26T21:43:16;7.23;;;5.07;;
55316;SDS011;41178;48.956;8.130;2024-02-26T21:48:19;8.90;;;4.60;;
55316;SDS011;41178;48.956;8.130;2024-02-26T21:53:20;5.30;;;4.77;;
55316;SDS011;41178;48.956;8.130;2024-02-26T21:58:23;7.33;;;4.90;;
55316;SDS011;41178;48.956;8.130;2024-02-26T22:03:25;5.37;;;4.87;;
55316;SDS011;41178;48.956;8.130;2024-02-26T22:08:27;5.73;;;4.73;;
55316;SDS011;41178;48.956;8.130;2024-02-26T22:13:28;7.40;;;4.80;;
55316;SDS011;41178;48.956;8.130;2024-02-26T22:18:30;5.00;;;4.50;;
55316;SDS011;41178;48.956;8.130;2024-02-26T22:23:32;5.63;;;4.23;;
55316;SDS011;41178;48.956;8.130;2024-02-26T22:28:34;5.53;;;4.10;;
55316;SDS011;41178;48.956;8.130;2024-02-26T22:33:36;6.47;;;4.77;;
55316;SDS011;41178;48.956;8.130;2024-02-26T22:38:38;9.57;;;5.30;;
55316;SDS011;41178;48.956;8.130;2024-02-26T22:43:40;6.63;;;4.37;;
55316;SDS011;41178;48.956;8.130;2024-02-26T22:48:41;6.63;;;5.23;;
55316;SDS011;41178;48.956;8.130;2024-02-26T22:53:43;5.83;;;4.50;;
55316;SDS011;41178;48.956;8.130;2024-02-26T22:58:45;6.13;;;5.20;;
55316;SDS011;41178;48.956;8.130;2024-02-26T23:03:47;7.33;;;5.30;;
55316;SDS011;41178;48.956;8.130;2024-02-26T23:08:49;7.57;;;5.20;;
55316;SDS011;41178;48.956;8.130;2024-02-26T23:13:50;6.03;;;4.80;;
55316;SDS011;41178;48.956;8.130;2024-02-26T23:18:53;11.77;;;5.17;;
55316;SDS011;41178;48.956;8.130;2024-02-26T23:23:55;6.23;;;5.03;;
55316;SDS011;41178;48.956;8.130;2024-02-26T23:28:57;6.70;;;5.20;;
55316;SDS011;41178;48.956;8.130;2024-02-26T23:33:59;6.67;;;4.67;;
55316;SDS011;41178;48.956;8.130;2024-02-26T23:39:00;7.07;;;4.87;;
55316;SDS011;41178;48.956;8.130;2024-02-26T23:44:03;7.47;;;5.43;;
55316;SDS011;41178;48.956;8.130;2024-02-26T23:49:05;4.80;;;4.30;;
55316;SDS011;41178;48.956;8.130;2024-02-26T23:54:08;5.77;;;4.80;;
55316;SDS011;41178;48.956;8.130;2024-02-26T23:59:09;6.23;;;4.70;;
